createdAt,value
2023-05-14T00:01:47.824Z,8.17
2023-05-14T00:04:32.578Z,8.12
2023-05-14T00:07:17.459Z,8.06
2023-05-14T00:10:02.164Z,8.01
2023-05-14T00:12:47.241Z,7.95
2023-05-14T00:15:34.192Z,7.94
2023-05-14T00:18:19.716Z,7.89
2023-05-14T00:21:04.644Z,7.86
2023-05-14T00:23:48.907Z,7.83
2023-05-14T00:26:33.458Z,7.80
2023-05-14T00:29:18.021Z,7.80
2023-05-14T00:32:03.118Z,7.82
2023-05-14T00:34:47.699Z,7.81
2023-05-14T00:37:32.859Z,7.78
2023-05-14T00:40:17.655Z,7.80
2023-05-14T00:43:03.091Z,7.81
2023-05-14T00:45:53.087Z,7.82
2023-05-14T00:48:37.891Z,7.84
2023-05-14T00:51:23.287Z,7.82
2023-05-14T00:54:08.363Z,7.77
2023-05-14T00:56:54.097Z,7.70
2023-05-14T00:59:41.142Z,7.62
2023-05-14T01:02:25.937Z,7.58
2023-05-14T01:05:10.413Z,7.56
2023-05-14T01:08:07.010Z,7.48
2023-05-14T01:10:59.889Z,7.42
2023-05-14T01:14:07.743Z,7.36
2023-05-14T01:16:57.179Z,7.29
2023-05-14T01:19:46.795Z,7.29
2023-05-14T01:22:31.759Z,7.26
2023-05-14T01:25:16.602Z,7.17
2023-05-14T01:28:28.338Z,7.13
2023-05-14T01:31:19.045Z,7.10
2023-05-14T01:34:06.075Z,7.09
2023-05-14T01:36:52.760Z,7.08
2023-05-14T01:39:38.986Z,7.12
2023-05-14T01:42:25.304Z,7.11
2023-05-14T01:45:10.380Z,7.09
2023-05-14T01:47:55.480Z,7.07
2023-05-14T01:50:40.748Z,7.03
2023-05-14T01:53:25.705Z,6.95
2023-05-14T01:56:10.894Z,6.92
2023-05-14T01:58:56.199Z,6.93
2023-05-14T02:01:41.405Z,6.96
2023-05-14T02:04:26.378Z,6.96
2023-05-14T02:07:11.185Z,6.92
2023-05-14T02:09:55.618Z,6.87
2023-05-14T02:12:40.283Z,6.84
2023-05-14T02:15:24.811Z,6.83
2023-05-14T02:18:09.859Z,6.84
2023-05-14T02:20:55.170Z,6.82
2023-05-14T02:23:41.961Z,6.84
2023-05-14T02:26:27.389Z,6.77
2023-05-14T02:29:13.029Z,6.76
2023-05-14T02:31:57.900Z,6.78
2023-05-14T02:34:42.492Z,6.77
2023-05-14T02:37:26.932Z,6.78
2023-05-14T02:40:11.735Z,6.81
2023-05-14T02:42:56.537Z,6.82
2023-05-14T02:45:41.021Z,6.91
2023-05-14T02:48:25.908Z,6.96
2023-05-14T02:51:11.023Z,7.01
2023-05-14T02:53:55.590Z,7.05
2023-05-14T02:56:40.203Z,7.11
2023-05-14T02:59:24.693Z,7.18
2023-05-14T03:02:09.904Z,7.42
2023-05-14T03:04:55.397Z,7.79
2023-05-14T03:07:39.747Z,8.23
2023-05-14T03:10:24.522Z,8.65
2023-05-14T03:13:09.054Z,9.05
2023-05-14T03:15:54.268Z,9.46
2023-05-14T03:18:39.106Z,9.87
2023-05-14T03:21:24.284Z,10.28
2023-05-14T03:24:08.797Z,10.66
2023-05-14T03:26:53.840Z,11.02
2023-05-14T03:29:38.484Z,11.37
2023-05-14T03:32:22.944Z,11.64
2023-05-14T03:35:08.263Z,11.82
2023-05-14T03:37:52.913Z,12.14
2023-05-14T03:40:38.081Z,12.54
2023-05-14T03:43:22.724Z,12.91
2023-05-14T03:46:08.189Z,13.21
2023-05-14T03:48:52.914Z,13.46
2023-05-14T03:51:37.903Z,13.75
2023-05-14T03:54:23.496Z,14.07
2023-05-14T03:57:08.252Z,14.38
2023-05-14T03:59:52.866Z,14.65
2023-05-14T04:02:37.509Z,14.91
2023-05-14T04:05:22.375Z,15.14
2023-05-14T04:08:07.281Z,15.31
2023-05-14T04:10:52.059Z,15.36
2023-05-14T04:13:36.578Z,15.53
2023-05-14T04:16:21.439Z,15.77
2023-05-14T04:19:06.783Z,16.03
2023-05-14T04:21:51.525Z,16.28
2023-05-14T04:24:36.260Z,16.61
2023-05-14T04:27:21.668Z,16.83
2023-05-14T04:30:07.749Z,16.97
2023-05-14T04:32:52.899Z,16.98
2023-05-14T04:35:37.671Z,17.04
2023-05-14T04:38:22.626Z,17.19
2023-05-14T04:41:07.387Z,17.21
2023-05-14T04:43:55.408Z,17.18
2023-05-14T04:46:40.297Z,17.18
2023-05-14T04:49:25.344Z,17.31
2023-05-14T04:52:10.166Z,17.43
2023-05-14T04:54:56.201Z,17.52
2023-05-14T04:57:41.248Z,17.61
2023-05-14T05:00:26.418Z,17.60
2023-05-14T05:03:12.199Z,17.63
2023-05-14T05:05:56.853Z,17.60
2023-05-14T05:08:41.762Z,17.67
2023-05-14T05:11:26.561Z,17.60
2023-05-14T05:14:11.078Z,17.77
2023-05-14T05:16:56.057Z,17.86
2023-05-14T05:19:44.238Z,18.09
2023-05-14T05:22:29.231Z,18.19
2023-05-14T05:25:13.834Z,18.39
2023-05-14T05:27:58.744Z,18.66
2023-05-14T05:30:44.575Z,18.91
2023-05-14T05:33:29.378Z,19.16
2023-05-14T05:36:14.443Z,19.14
2023-05-14T05:38:59.205Z,19.22
2023-05-14T05:41:43.871Z,19.25
2023-05-14T05:44:28.324Z,19.39
2023-05-14T05:47:12.795Z,19.46
2023-05-14T05:49:57.163Z,19.56
2023-05-14T05:52:41.801Z,19.69
2023-05-14T05:55:28.069Z,19.85
2023-05-14T05:58:15.106Z,19.93
2023-05-14T06:01:00.585Z,20.01
2023-05-14T06:03:46.450Z,20.17
2023-05-14T06:06:33.094Z,20.33
2023-05-14T06:09:18.049Z,20.51
2023-05-14T06:12:03.166Z,20.65
2023-05-14T06:14:48.138Z,20.71
2023-05-14T06:17:33.142Z,20.73
2023-05-14T06:20:18.630Z,20.79
2023-05-14T06:23:03.127Z,20.91
2023-05-14T06:25:50.762Z,20.96
2023-05-14T06:28:35.730Z,20.99
2023-05-14T06:31:20.880Z,21.08
2023-05-14T06:34:05.781Z,21.30
2023-05-14T06:36:50.255Z,21.52
2023-05-14T06:39:38.710Z,21.77
2023-05-14T06:42:23.455Z,21.97
2023-05-14T06:45:08.467Z,22.10
2023-05-14T06:47:53.367Z,22.26
2023-05-14T06:50:38.005Z,22.50
2023-05-14T06:53:22.620Z,22.72
2023-05-14T06:56:07.596Z,22.86
2023-05-14T06:58:52.108Z,23.16
2023-05-14T07:01:36.905Z,23.42
2023-05-14T07:04:21.401Z,23.68
2023-05-14T07:07:06.431Z,23.94
2023-05-14T07:09:51.275Z,24.17
2023-05-14T07:12:36.003Z,23.92
2023-05-14T07:15:20.899Z,24.11
2023-05-14T07:18:05.926Z,23.95
2023-05-14T07:20:50.341Z,24.11
2023-05-14T07:23:36.447Z,24.37
2023-05-14T07:26:23.697Z,24.60
2023-05-14T07:29:08.518Z,24.88
2023-05-14T07:31:52.849Z,25.16
2023-05-14T07:34:37.309Z,25.28
2023-05-14T07:37:23.656Z,25.10
2023-05-14T07:40:08.974Z,25.31
2023-05-14T07:42:53.583Z,25.60
2023-05-14T07:45:40.953Z,25.70
2023-05-14T07:48:25.733Z,25.80
2023-05-14T07:51:11.152Z,26.04
2023-05-14T07:53:55.623Z,26.22
2023-05-14T07:56:40.640Z,26.45
2023-05-14T07:59:25.487Z,26.53
2023-05-14T08:02:12.204Z,26.65
2023-05-14T08:04:56.740Z,26.80
2023-05-14T08:07:40.886Z,26.86
2023-05-14T08:10:25.921Z,26.89
2023-05-14T08:13:10.967Z,26.87
2023-05-14T08:15:55.858Z,26.97
2023-05-14T08:18:40.779Z,27.19
2023-05-14T08:21:25.713Z,27.40
2023-05-14T08:24:10.717Z,27.38
2023-05-14T08:26:55.581Z,27.64
2023-05-14T08:29:40.858Z,27.60
2023-05-14T08:32:25.779Z,27.28
2023-05-14T08:35:10.853Z,27.38
2023-05-14T08:37:56.524Z,27.62
2023-05-14T08:40:41.792Z,27.70
2023-05-14T08:43:43.873Z,27.79
2023-05-14T08:46:30.407Z,27.88
2023-05-14T08:49:28.061Z,28.07
2023-05-14T08:52:12.959Z,28.37
2023-05-14T08:55:00.827Z,28.50
2023-05-14T08:57:45.933Z,28.77
2023-05-14T09:00:30.758Z,29.14
2023-05-14T09:03:17.722Z,29.26
2023-05-14T09:06:04.192Z,29.60
2023-05-14T09:08:49.178Z,29.55
2023-05-14T09:11:34.003Z,29.47
2023-05-14T09:14:19.770Z,29.15
2023-05-14T09:17:04.717Z,28.93
2023-05-14T09:19:52.307Z,28.92
2023-05-14T09:22:38.184Z,28.95
2023-05-14T09:25:27.273Z,29.13
2023-05-14T09:28:12.150Z,29.74
2023-05-14T09:30:57.095Z,30.27
2023-05-14T09:33:41.604Z,30.72
2023-05-14T09:36:26.686Z,30.84
2023-05-14T09:39:11.710Z,30.93
2023-05-14T09:41:56.360Z,30.34
2023-05-14T09:44:41.444Z,30.57
2023-05-14T09:47:26.347Z,30.64
2023-05-14T09:50:11.115Z,30.81
2023-05-14T09:52:55.568Z,31.16
2023-05-14T09:55:41.049Z,31.68
2023-05-14T09:58:26.007Z,31.35
2023-05-14T10:01:11.306Z,30.25
2023-05-14T10:03:56.628Z,29.12
2023-05-14T10:06:43.280Z,28.92
2023-05-14T10:09:29.212Z,29.68
2023-05-14T10:12:19.610Z,30.53
2023-05-14T10:15:13.148Z,31.26
2023-05-14T10:18:01.110Z,31.74
2023-05-14T10:21:13.753Z,31.68
2023-05-14T10:23:59.697Z,32.21
2023-05-14T10:26:44.861Z,31.98
2023-05-14T10:29:37.667Z,32.11
2023-05-14T10:32:25.104Z,32.55
2023-05-14T10:35:19.615Z,32.56
2023-05-14T10:38:08.211Z,31.59
2023-05-14T10:41:09.319Z,32.11
2023-05-14T10:43:56.918Z,32.99
2023-05-14T10:46:41.842Z,33.68
2023-05-14T10:49:42.400Z,33.95
2023-05-14T10:52:28.981Z,33.57
2023-05-14T10:55:15.780Z,33.23
2023-05-14T10:58:03.895Z,33.17
2023-05-14T11:00:53.720Z,33.52
2023-05-14T11:03:43.122Z,33.84
2023-05-14T11:06:28.925Z,34.39
2023-05-14T11:09:16.991Z,34.68
2023-05-14T11:12:01.832Z,35.49
2023-05-14T11:14:46.924Z,35.81
2023-05-14T11:17:32.033Z,35.86
2023-05-14T11:20:17.973Z,35.78
2023-05-14T11:23:02.868Z,35.07
2023-05-14T11:25:47.588Z,35.07
2023-05-14T11:28:32.169Z,35.31
2023-05-14T11:31:17.006Z,36.06
2023-05-14T11:34:03.572Z,35.90
2023-05-14T11:36:48.713Z,36.17
2023-05-14T11:39:35.264Z,35.77
2023-05-14T11:42:21.681Z,35.72
2023-05-14T11:45:10.550Z,35.69
2023-05-14T11:47:55.509Z,36.19
2023-05-14T11:50:44.813Z,35.10
2023-05-14T11:53:30.265Z,35.00
2023-05-14T11:56:15.336Z,34.91
2023-05-14T11:59:00.153Z,34.33
2023-05-14T12:01:46.184Z,33.86
2023-05-14T12:04:31.265Z,34.17
2023-05-14T12:07:16.143Z,34.26
2023-05-14T12:10:02.704Z,32.89
2023-05-14T12:12:48.312Z,32.78
2023-05-14T12:15:32.897Z,34.07
2023-05-14T12:18:24.205Z,35.28
2023-05-14T12:21:11.367Z,36.07
2023-05-14T12:24:00.249Z,37.02
2023-05-14T12:26:50.069Z,37.44
2023-05-14T12:29:37.339Z,37.27
2023-05-14T12:32:25.244Z,37.01
2023-05-14T12:35:10.230Z,37.02
2023-05-14T12:37:55.031Z,35.00
2023-05-14T12:40:40.114Z,34.20
2023-05-14T12:43:29.320Z,33.79
2023-05-14T12:46:14.066Z,33.27
2023-05-14T12:48:59.486Z,32.27
2023-05-14T12:51:43.957Z,31.14
2023-05-14T12:54:28.532Z,31.46
2023-05-14T12:57:13.470Z,31.03
2023-05-14T12:59:58.331Z,30.16
2023-05-14T13:02:43.964Z,29.29
2023-05-14T13:05:29.034Z,28.22
2023-05-14T13:08:17.224Z,27.40
2023-05-14T13:11:01.868Z,26.45
2023-05-14T13:13:46.361Z,26.04
2023-05-14T13:16:30.969Z,25.86
2023-05-14T13:19:16.031Z,25.98
2023-05-14T13:22:00.704Z,27.66
2023-05-14T13:24:45.749Z,28.79
2023-05-14T13:27:30.255Z,30.98
2023-05-14T13:30:16.836Z,33.37
2023-05-14T13:33:01.948Z,35.16
2023-05-14T13:35:46.625Z,36.37
2023-05-14T13:38:31.143Z,36.73
2023-05-14T13:41:15.946Z,36.66
2023-05-14T13:44:00.427Z,35.41
2023-05-14T13:46:45.082Z,33.43
2023-05-14T13:49:29.998Z,31.78
2023-05-14T13:52:14.441Z,31.12
2023-05-14T13:54:58.959Z,31.32
2023-05-14T13:57:43.580Z,31.79
2023-05-14T14:00:28.356Z,31.49
2023-05-14T14:03:12.808Z,32.74
2023-05-14T14:05:57.448Z,34.80
2023-05-14T14:08:42.556Z,36.05
2023-05-14T14:11:27.508Z,37.06
2023-05-14T14:14:12.559Z,37.40
2023-05-14T14:16:57.280Z,36.98
2023-05-14T14:19:41.934Z,37.19
2023-05-14T14:22:28.248Z,38.11
2023-05-14T14:25:13.741Z,38.62
2023-05-14T14:27:58.494Z,38.78
2023-05-14T14:30:43.256Z,38.80
2023-05-14T14:33:28.108Z,38.48
2023-05-14T14:36:12.906Z,38.32
2023-05-14T14:38:57.831Z,37.95
2023-05-14T14:41:43.727Z,37.37
2023-05-14T14:44:28.698Z,37.37
2023-05-14T14:47:13.300Z,36.89
2023-05-14T14:49:57.781Z,35.74
2023-05-14T14:52:45.478Z,33.51
2023-05-14T14:55:30.850Z,33.41
2023-05-14T14:58:16.041Z,34.29
2023-05-14T15:01:01.290Z,35.32
2023-05-14T15:03:47.679Z,36.07
2023-05-14T15:06:32.788Z,36.37
2023-05-14T15:09:17.224Z,36.53
2023-05-14T15:12:02.583Z,36.52
2023-05-14T15:14:47.323Z,36.09
2023-05-14T15:17:31.886Z,35.64
2023-05-14T15:20:16.715Z,35.40
2023-05-14T15:23:01.943Z,35.52
2023-05-14T15:25:46.510Z,35.65
2023-05-14T15:28:31.294Z,35.78
2023-05-14T15:31:15.919Z,35.82
2023-05-14T15:34:01.134Z,35.49
2023-05-14T15:36:46.040Z,35.28
2023-05-14T15:39:30.869Z,35.17
2023-05-14T15:42:15.679Z,34.48
2023-05-14T15:45:00.523Z,34.21
2023-05-14T15:47:45.470Z,34.11
2023-05-14T15:50:30.171Z,34.02
2023-05-14T15:53:15.296Z,34.16
2023-05-14T15:56:00.250Z,34.25
2023-05-14T15:58:44.767Z,34.27
2023-05-14T16:01:29.788Z,34.18
2023-05-14T16:04:14.159Z,33.86
2023-05-14T16:07:03.628Z,33.58
2023-05-14T16:09:48.263Z,33.26
2023-05-14T16:12:33.728Z,32.76
2023-05-14T16:15:18.356Z,32.47
2023-05-14T16:18:03.393Z,32.42
2023-05-14T16:20:48.142Z,32.31
2023-05-14T16:23:32.738Z,32.10
2023-05-14T16:26:17.218Z,31.85
2023-05-14T16:29:02.141Z,31.76
2023-05-14T16:31:46.679Z,31.56
2023-05-14T16:34:31.802Z,31.28
2023-05-14T16:37:19.138Z,31.01
2023-05-14T16:40:04.354Z,30.73
2023-05-14T16:42:49.404Z,30.38
2023-05-14T16:45:36.604Z,30.03
2023-05-14T16:48:23.139Z,29.61
2023-05-14T16:51:09.055Z,29.21
2023-05-14T16:53:55.500Z,28.77
2023-05-14T16:56:41.435Z,28.34
